createdAt,value
2023-03-03T06:18:12.525Z,1.90
2023-03-03T06:23:14.357Z,1.90
2023-03-03T06:28:16.192Z,1.90
2023-03-03T06:33:18.059Z,2.00
2023-03-03T06:38:20.540Z,2.00
2023-03-03T06:43:22.338Z,2.00
2023-03-03T06:48:24.193Z,2.00
2023-03-03T06:53:26.605Z,1.90
2023-03-03T06:58:29.579Z,1.90
2023-03-03T07:03:34.981Z,2.00
2023-03-03T07:08:37.303Z,2.00
2023-03-03T07:13:40.960Z,2.00
2023-03-03T07:18:52.580Z,2.00
2023-03-03T07:23:54.738Z,2.00
2023-03-03T07:29:00.477Z,2.00
2023-03-03T07:34:14.336Z,2.00
2023-03-03T07:39:35.417Z,2.00
2023-03-03T07:44:37.690Z,2.00
2023-03-03T07:49:39.901Z,2.00
2023-03-03T07:54:44.139Z,2.00
2023-03-03T07:59:48.827Z,2.10
2023-03-03T08:04:52.637Z,2.10
2023-03-03T08:09:57.580Z,2.20
2023-03-03T08:15:15.348Z,2.20
2023-03-03T08:20:29.150Z,2.20
2023-03-03T08:25:30.930Z,2.30
2023-03-03T08:30:32.785Z,2.30
2023-03-03T08:35:34.811Z,2.30
2023-03-03T08:40:36.958Z,2.30
2023-03-03T08:45:39.374Z,2.30
2023-03-03T08:50:41.303Z,2.40
2023-03-03T08:55:44.325Z,2.50
2023-03-03T09:00:49.216Z,2.50
2023-03-03T09:05:51.529Z,2.60
2023-03-03T09:10:53.498Z,2.60
2023-03-03T09:15:56.729Z,2.70
2023-03-03T09:20:58.597Z,2.80
2023-03-03T09:26:31.272Z,2.90
2023-03-03T09:31:40.634Z,3.00
2023-03-03T09:36:42.509Z,3.00
2023-03-03T09:42:23.043Z,3.10
2023-03-03T09:47:43.309Z,3.20
2023-03-03T09:53:37.120Z,3.20
2023-03-03T09:59:10.097Z,3.30
2023-03-03T10:04:20.708Z,3.30
2023-03-03T10:09:48.695Z,3.40
2023-03-03T10:14:56.188Z,3.50
2023-03-03T10:20:21.283Z,3.60
2023-03-03T10:25:51.014Z,3.60
2023-03-03T10:31:10.695Z,3.70
2023-03-03T10:36:49.805Z,3.80
2023-03-03T10:42:07.427Z,3.90
2023-03-03T10:47:27.306Z,4.00
2023-03-03T10:52:39.690Z,4.10
2023-03-03T10:57:52.318Z,4.10
2023-03-03T11:03:09.842Z,4.20
2023-03-03T11:08:17.790Z,4.20
2023-03-03T11:13:48.759Z,4.20
2023-03-03T11:19:08.089Z,4.30
2023-03-03T11:24:29.714Z,4.50
2023-03-03T11:30:02.739Z,4.60
2023-03-03T11:35:19.783Z,4.70
2023-03-03T11:40:25.988Z,4.80
2023-03-03T11:45:37.878Z,5.00
2023-03-03T11:50:48.049Z,5.40
2023-03-03T11:55:57.081Z,5.70
2023-03-03T12:01:14.795Z,6.00
2023-03-03T12:06:22.677Z,6.20
2023-03-03T12:11:48.518Z,6.20
2023-03-03T12:16:56.553Z,6.20
2023-03-03T12:22:01.232Z,6.20
2023-03-03T12:27:15.161Z,6.20
2023-03-03T12:32:49.646Z,6.20
2023-03-03T12:38:00.468Z,6.30
2023-03-03T12:43:08.362Z,6.60
2023-03-03T12:48:39.064Z,6.90
2023-03-03T12:54:05.206Z,7.50
2023-03-03T12:59:19.771Z,8.10
2023-03-03T13:04:46.939Z,8.60
2023-03-03T13:09:54.763Z,8.50
2023-03-03T13:15:02.645Z,8.70
2023-03-03T13:20:17.465Z,9.20
2023-03-03T13:25:28.278Z,9.60
2023-03-03T13:30:40.322Z,9.90
2023-03-03T13:35:55.334Z,10.00
2023-03-03T13:41:23.886Z,9.90
2023-03-03T13:46:41.917Z,10.00
2023-03-03T13:51:52.168Z,10.40
2023-03-03T13:57:05.193Z,10.00
2023-03-03T14:02:22.366Z,9.60
2023-03-03T14:07:30.701Z,10.00
2023-03-03T14:12:44.581Z,10.00
2023-03-03T14:17:58.726Z,9.90
2023-03-03T14:23:11.352Z,10.00
2023-03-03T14:28:14.208Z,10.30
2023-03-03T14:33:19.997Z,11.00
2023-03-03T14:38:25.196Z,11.00
2023-03-03T14:43:34.775Z,10.60
2023-03-03T14:48:51.162Z,10.70
2023-03-03T14:53:53.382Z,11.30
2023-03-03T14:59:15.872Z,11.90
2023-03-03T15:04:17.594Z,12.00
2023-03-03T15:09:43.374Z,11.60
2023-03-03T15:14:48.230Z,11.40
2023-03-03T15:20:22.042Z,11.00
2023-03-03T15:25:41.977Z,10.60
2023-03-03T15:30:50.582Z,10.30
2023-03-03T15:35:58.138Z,10.00
2023-03-03T15:41:11.948Z,9.70
2023-03-03T15:46:55.662Z,9.30
2023-03-03T15:52:22.739Z,9.10
2023-03-03T15:57:47.245Z,8.90
2023-03-03T16:02:57.752Z,8.70
2023-03-03T16:08:14.159Z,8.50
2023-03-03T16:13:23.646Z,8.40
2023-03-03T16:18:49.667Z,8.50
2023-03-03T16:23:57.190Z,8.50
2023-03-03T16:29:36.700Z,8.40
2023-03-03T16:34:58.088Z,8.40
2023-03-03T16:40:07.601Z,8.30
2023-03-03T16:45:17.615Z,8.20
2023-03-03T16:50:45.969Z,8.10
2023-03-03T16:56:11.286Z,8.00
2023-03-03T17:01:28.066Z,7.90
2023-03-03T17:06:55.489Z,7.90
2023-03-03T17:12:09.255Z,7.70
2023-03-03T17:17:31.968Z,7.60
2023-03-03T17:22:50.161Z,7.50
2023-03-03T17:27:58.082Z,7.30
2023-03-03T17:33:37.521Z,7.30
2023-03-03T17:38:42.228Z,7.30
2023-03-03T17:43:53.189Z,7.20
2023-03-03T17:49:22.577Z,7.10
